Purdys Mills, New York
Current Conditions -  °F | °C
As of 6:53 AM on Monday 24 Nov 2014 (Local Time) from KPBG Reporting Station
Moderate Rain Moderate Rain  
Wind Chill: 39°   Ceiling: 1200
Heat Index: 45°   Visibility: 4mi
Dew Point: 44°   Wind: 12mph
Humidity: 97%   Direction: 150°SSE
Pressure: 29.58"   Gusts: NA
Location:  44.8543°N, 73.663°W
Report Text: KPBG 241153Z AUTO 15010KT 4SM RA BR SCT005 BKN012 OVC030 07/07 A2958 RMK AO2 SLP017 P0005 60006 70006 T00720067 10106 20072 58058
Loading
Personal Weather Stations






























Interactive Weather Map New forecast layout! Learn more

10-Day Weather Forecast

Advertisements
Track Severe Weather on mobile